Time;durP1;ratioP1;P1;durP2;ratioP2;P2;SDS_P1;SDS_P2;PMS_P1;PMS_P2;Temp;Humidity;BMP_temperature;BMP_pressure;BME280_temperature;BME280_humidity;BME280_pressure;Samples;Min_cycle;Max_cycle;Signal;HPM_P1;HPM_P2
2023/04/26 00:01:50;;;;;;;2.40;1.30;;;;;;;12.13;37.22;101706.06;5054500;28;20036;-67
2023/04/26 00:04:15;;;;;;;1.55;1.45;;;;;;;12.08;37.73;101700.19;5037064;28;20040;-67
2023/04/26 00:06:40;;;;;;;9.82;1.40;;;;;;;12.02;37.70;101708.72;5054458;28;20032;-67
2023/04/26 00:09:06;;;;;;;1.45;0.95;;;;;;;11.97;37.50;101700.16;5038065;28;20131;-67
2023/04/26 00:11:32;;;;;;;5.35;1.13;;;;;;;11.92;37.90;101696.94;5037871;28;20032;-67
2023/04/26 00:13:58;;;;;;;2.40;1.30;;;;;;;11.91;37.84;101713.19;5050917;28;20504;-67
2023/04/26 00:16:23;;;;;;;2.30;1.15;;;;;;;11.87;37.84;101706.31;5051088;28;20501;-67
2023/04/26 00:18:49;;;;;;;4.63;1.67;;;;;;;11.83;37.72;101713.75;5034471;28;20056;-67
2023/04/26 00:21:15;;;;;;;2.97;1.40;;;;;;;11.77;37.93;101703.47;5051552;28;20021;-68
2023/04/26 00:23:41;;;;;;;2.47;1.63;;;;;;;11.74;38.32;101708.22;5052531;28;20044;-68
2023/04/26 00:26:06;;;;;;;2.92;1.58;;;;;;;11.66;38.45;101706.94;5034348;28;20538;-67
2023/04/26 00:28:31;;;;;;;2.10;1.50;;;;;;;11.62;37.92;101707.25;5017745;28;20071;-68
2023/04/26 00:30:57;;;;;;;4.25;2.10;;;;;;;11.60;38.33;101709.22;5050549;28;20044;-67
2023/04/26 00:33:23;;;;;;;2.55;1.33;;;;;;;11.57;38.23;101704.94;5051387;28;20056;-67
2023/04/26 00:35:49;;;;;;;7.78;1.35;;;;;;;11.51;37.63;101697.34;5035989;28;20126;-67
2023/04/26 00:38:14;;;;;;;3.15;1.42;;;;;;;11.48;37.66;101702.94;5054853;28;20075;-67
2023/04/26 00:40:39;;;;;;;4.68;1.42;;;;;;;11.45;38.21;101702.28;5054971;28;20082;-68
2023/04/26 00:43:05;;;;;;;4.40;1.73;;;;;;;11.42;37.84;101707.88;5037606;28;20492;-67
2023/04/26 00:45:31;;;;;;;5.72;1.23;;;;;;;11.38;38.26;101718.00;5054163;28;20029;-67
2023/04/26 00:47:58;;;;;;;3.00;1.30;;;;;;;11.35;38.30;101710.19;5038227;28;20048;-67
2023/04/26 00:50:24;;;;;;;1.85;1.10;;;;;;;11.29;38.63;101707.06;5054387;28;20037;-67
2023/04/26 00:52:49;;;;;;;2.75;1.50;;;;;;;11.25;38.43;101702.94;5054123;28;20087;-67
2023/04/26 00:55:15;;;;;;;5.47;1.63;;;;;;;11.24;38.40;101707.44;5053894;28;20110;-67
2023/04/26 00:57:41;;;;;;;7.53;1.75;;;;;;;11.21;38.60;101714.81;5054191;28;20039;-67
2023/04/26 01:00:07;;;;;;;5.47;1.17;;;;;;;11.17;38.96;101705.31;5021314;28;20031;-67
2023/04/26 01:02:32;;;;;;;2.38;1.33;;;;;;;11.13;38.76;101701.13;5038461;28;20459;-68
2023/04/26 01:04:57;;;;;;;2.38;1.23;;;;;;;11.10;38.33;101700.38;5037478;28;20041;-67
2023/04/26 01:07:23;;;;;;;3.20;1.90;;;;;;;11.08;38.68;101707.66;5037394;28;20082;-67
2023/04/26 01:09:49;;;;;;;4.13;1.65;;;;;;;11.07;38.42;101705.09;5037481;28;20049;-67
2023/04/26 01:12:14;;;;;;;2.03;1.45;;;;;;;11.02;38.56;101710.81;5054163;28;20479;-67
2023/04/26 01:14:40;;;;;;;2.85;1.60;;;;;;;11.00;38.69;101712.72;5053605;28;20061;-67
2023/04/26 01:17:05;;;;;;;2.72;1.60;;;;;;;11.00;39.26;101718.09;5020410;28;20048;-67
2023/04/26 01:19:31;;;;;;;6.88;1.90;;;;;;;10.96;38.69;101711.25;5036981;28;20040;-67
2023/04/26 01:21:57;;;;;;;2.33;1.35;;;;;;;10.94;38.37;101705.13;5053974;28;20110;-67
2023/04/26 01:24:22;;;;;;;4.47;1.75;;;;;;;10.93;38.29;101710.59;5054134;28;20040;-67
2023/04/26 01:26:48;;;;;;;6.75;1.30;;;;;;;10.92;38.33;101712.41;5054213;28;20064;-67
2023/04/26 01:29:17;;;;;;;7.13;2.03;;;;;;;10.90;39.21;101710.81;5036752;28;20051;-67
2023/04/26 01:31:43;;;;;;;4.38;1.33;;;;;;;10.85;39.40;101713.84;5047707;28;20036;-67
2023/04/26 01:34:09;;;;;;;3.78;1.33;;;;;;;10.80;38.77;101716.00;5067019;28;20041;-66
2023/04/26 01:36:34;;;;;;;2.90;1.58;;;;;;;10.79;39.04;101708.91;5036695;28;20034;-67
2023/04/26 01:39:00;;;;;;;4.88;1.35;;;;;;;10.77;39.02;101716.22;5054957;28;20090;-67
2023/04/26 01:41:25;;;;;;;6.43;2.05;;;;;;;10.73;38.62;101709.34;5053234;28;20381;-67
2023/04/26 01:43:51;;;;;;;3.17;1.80;;;;;;;10.73;39.05;101709.34;5020041;28;20039;-67
2023/04/26 01:46:17;;;;;;;1.98;1.58;;;;;;;10.70;38.95;101709.56;5019704;28;20033;-67
2023/04/26 01:48:42;;;;;;;3.38;1.88;;;;;;;10.68;39.75;101716.00;5054334;28;20108;-67
2023/04/26 01:51:07;;;;;;;3.90;1.42;;;;;;;10.66;39.14;101708.06;5020281;28;20495;-68
2023/04/26 01:53:33;;;;;;;2.33;1.80;;;;;;;10.62;39.18;101695.84;5052827;28;20570;-67
2023/04/26 01:56:02;;;;;;;4.07;2.08;;;;;;;10.60;39.18;101703.13;5029911;28;20135;-67
2023/04/26 01:58:28;;;;;;;1.90;1.17;;;;;;;10.58;39.54;101707.72;5036148;28;20044;-67
2023/04/26 02:00:53;;;;;;;5.13;1.45;;;;;;;10.56;38.76;101703.44;5053106;28;20115;-66
2023/04/26 02:03:20;;;;;;;3.20;1.13;;;;;;;10.55;39.03;101704.44;5036536;28;20116;-68
2023/04/26 02:05:45;;;;;;;3.40;1.60;;;;;;;10.51;39.19;101706.47;5052865;28;20064;-67
2023/04/26 02:08:10;;;;;;;4.47;1.52;;;;;;;10.47;38.64;101707.63;5053756;28;20060;-67
2023/04/26 02:10:36;;;;;;;5.00;2.05;;;;;;;10.45;39.28;101709.56;5035736;28;20044;-67
2023/04/26 02:13:01;;;;;;;2.75;1.20;;;;;;;10.43;38.88;101716.84;5035874;28;20115;-68
2023/04/26 02:15:27;;;;;;;2.35;1.60;;;;;;;10.41;39.54;101716.09;5052336;28;20052;-67
2023/04/26 02:17:54;;;;;;;3.40;1.40;;;;;;;10.36;39.31;101711.06;5052837;28;20039;-67
2023/04/26 02:20:20;;;;;;;3.22;1.25;;;;;;;10.34;39.98;101701.41;5052554;28;20116;-67
2023/04/26 02:22:45;;;;;;;3.28;1.40;;;;;;;10.34;39.29;101702.28;5035841;28;20033;-67
2023/04/26 02:25:11;;;;;;;6.07;1.58;;;;;;;10.33;39.65;101708.59;5052309;28;20424;-67
2023/04/26 02:27:36;;;;;;;6.88;1.80;;;;;;;10.28;39.12;101701.84;5052276;28;20029;-67
2023/04/26 02:30:02;;;;;;;4.43;1.75;;;;;;;10.27;39.80;101700.13;5052493;28;20115;-66
2023/04/26 02:32:28;;;;;;;4.72;2.17;;;;;;;10.26;39.63;101703.75;5052340;28;20560;-67
2023/04/26 02:34:53;;;;;;;2.88;1.42;;;;;;;10.24;39.94;101703.03;5052243;28;20128;-67
2023/04/26 02:37:20;;;;;;;14.20;1.88;;;;;;;10.20;39.23;101698.81;5035564;28;20041;-67
2023/04/26 02:39:49;;;;;;;2.90;1.98;;;;;;;10.20;40.16;101704.19;5052064;28;20091;-67
2023/04/26 02:42:14;;;;;;;4.07;1.63;;;;;;;10.22;39.34;101704.94;5035960;28;20115;-66
2023/04/26 02:44:40;;;;;;;6.10;1.67;;;;;;;10.20;39.46;101702.38;5019357;28;20063;-67
2023/04/26 02:47:05;;;;;;;5.45;2.10;;;;;;;10.19;39.43;101691.78;5053532;28;20405;-66
2023/04/26 02:49:32;;;;;;;3.70;2.05;;;;;;;10.19;39.94;101700.63;5035881;28;20563;-67
2023/04/26 02:51:57;;;;;;;4.85;2.25;;;;;;;10.17;39.90;101704.38;5035518;28;20040;-67
2023/04/26 02:54:22;;;;;;;6.47;2.10;;;;;;;10.16;39.93;101697.34;5035660;28;20036;-68
2023/04/26 02:56:48;;;;;;;4.28;2.22;;;;;;;10.13;39.35;101689.53;5053027;28;20033;-66
2023/04/26 02:59:13;;;;;;;3.38;1.95;;;;;;;10.12;39.58;101685.09;5034548;28;20055;-66
2023/04/26 03:01:39;;;;;;;6.07;1.90;;;;;;;10.09;39.87;101679.94;5051699;28;20045;-67
2023/04/26 03:04:04;;;;;;;3.20;1.40;;;;;;;10.06;39.60;101675.66;5051707;28;20033;-68
2023/04/26 03:06:30;;;;;;;3.45;2.42;;;;;;;10.03;39.66;101672.31;5051411;28;20044;-66
2023/04/26 03:08:55;;;;;;;3.97;1.70;;;;;;;10.03;39.74;101675.84;5052055;28;20036;-66
2023/04/26 03:11:20;;;;;;;2.97;1.70;;;;;;;10.01;40.30;101671.56;5034961;28;20492;-66
2023/04/26 03:13:46;;;;;;;7.20;1.92;;;;;;;9.98;40.30;101667.28;5035065;28;20086;-67
2023/04/26 03:16:11;;;;;;;1.90;1.55;;;;;;;9.98;40.20;101683.34;5034897;28;20072;-67
2023/04/26 03:18:37;;;;;;;2.55;1.92;;;;;;;9.95;40.35;101678.22;5051823;28;20037;-67
2023/04/26 03:21:02;;;;;;;2.33;1.50;;;;;;;9.95;40.50;101678.22;5035503;28;20499;-67
2023/04/26 03:23:28;;;;;;;4.80;2.13;;;;;;;9.94;39.92;101680.03;5048646;28;20029;-67
2023/04/26 03:25:53;;;;;;;3.85;1.60;;;;;;;9.93;40.14;101670.28;5034755;28;20037;-66
2023/04/26 03:28:19;;;;;;;3.80;2.00;;;;;;;9.90;39.34;101670.50;5042658;28;20548;-67
2023/04/26 03:30:44;;;;;;;5.25;2.10;;;;;;;9.92;40.32;101675.72;5072383;28;20036;-67
2023/04/26 03:33:10;;;;;;;3.10;1.85;;;;;;;9.91;39.83;101672.19;5073594;28;20087;-67
2023/04/26 03:35:35;;;;;;;4.95;2.00;;;;;;;9.87;40.59;101665.34;5075145;28;20036;-66
2023/04/26 03:38:01;;;;;;;4.07;2.55;;;;;;;9.87;39.71;101678.72;5058630;28;20031;-66
2023/04/26 03:40:26;;;;;;;7.63;2.20;;;;;;;9.85;40.93;101667.25;5072940;28;20040;-67
2023/04/26 03:42:52;;;;;;;4.68;2.10;;;;;;;9.84;40.05;101668.25;5072590;28;20115;-67
2023/04/26 03:45:17;;;;;;;5.68;1.45;;;;;;;9.82;39.95;101669.31;5038355;28;20033;-66
2023/04/26 03:47:43;;;;;;;9.50;1.92;;;;;;;9.80;39.66;101673.88;5072399;28;20032;-67
2023/04/26 03:50:09;;;;;;;2.47;1.55;;;;;;;9.78;39.76;101671.31;5072558;28;20491;-66
2023/04/26 03:52:34;;;;;;;4.88;1.77;;;;;;;9.77;40.08;101664.25;5071068;28;20511;-67
2023/04/26 03:55:00;;;;;;;1.13;1.00;;;;;;;9.71;40.38;101659.34;5032881;28;20033;-66
2023/04/26 03:57:25;;;;;;;3.10;1.85;;;;;;;9.74;40.80;101668.97;5067784;28;20032;-67
2023/04/26 03:59:51;;;;;;;10.60;2.17;;;;;;;9.71;40.45;101674.53;5052919;28;20515;-67
2023/04/26 04:02:16;;;;;;;2.53;1.85;;;;;;;9.71;40.85;101671.84;5034614;28;20504;-67
2023/04/26 04:04:42;;;;;;;2.83;2.03;;;;;;;9.71;40.41;101679.88;5018038;28;20041;-66
2023/04/26 04:07:07;;;;;;;6.88;2.38;;;;;;;9.72;40.62;101678.88;5051219;28;20060;-67
2023/04/26 04:09:33;;;;;;;2.65;1.77;;;;;;;9.71;39.89;101677.19;5052279;28;20511;-67
2023/04/26 04:11:59;;;;;;;9.90;2.28;;;;;;;9.70;40.86;101671.00;5055384;28;20029;-66
2023/04/26 04:14:24;;;;;;;3.58;2.25;;;;;;;9.73;40.12;101684.16;5054908;28;20055;-66
2023/04/26 04:16:49;;;;;;;7.78;2.28;;;;;;;9.74;40.16;101680.50;5056336;28;20440;-66
2023/04/26 04:19:15;;;;;;;3.10;2.15;;;;;;;9.75;40.54;101686.72;5056290;28;20029;-67
2023/04/26 04:21:42;;;;;;;5.60;2.17;;;;;;;9.77;40.80;101685.66;5055040;28;20060;-67
2023/04/26 04:24:07;;;;;;;6.47;2.58;;;;;;;9.78;40.33;101686.50;5038714;28;20424;-67
2023/04/26 04:26:33;;;;;;;5.45;2.10;;;;;;;9.79;40.77;101678.41;5054671;28;20037;-67
2023/04/26 04:29:07;;;;;;;5.95;2.78;;;;;;;9.80;40.50;101688.13;5054665;28;20033;-67
2023/04/26 04:31:33;;;;;;;2.47;1.67;;;;;;;9.79;40.86;101683.75;5055642;28;20057;-66
2023/04/26 04:33:58;;;;;;;6.07;2.45;;;;;;;9.81;40.00;101692.53;5039254;28;20032;-68
2023/04/26 04:36:25;;;;;;;8.50;1.98;;;;;;;9.82;40.03;101694.25;5055617;28;20024;-67
2023/04/26 04:38:52;;;;;;;4.65;1.70;;;;;;;9.83;40.60;101690.59;5038483;28;20025;-67
2023/04/26 04:41:19;;;;;;;4.85;1.65;;;;;;;9.86;40.33;101686.84;5055561;28;20423;-66
2023/04/26 04:43:44;;;;;;;7.47;2.65;;;;;;;9.91;40.36;101698.09;5054530;28;20040;-67
2023/04/26 04:46:09;;;;;;;4.65;2.13;;;;;;;9.96;40.45;101696.00;5054272;28;20045;-67
2023/04/26 04:48:37;;;;;;;4.13;2.45;;;;;;;10.02;40.47;101697.41;5054494;28;20035;-66
2023/04/26 04:51:02;;;;;;;5.38;2.10;;;;;;;10.04;41.09;101692.78;5054701;28;20116;-66
2023/04/26 04:53:28;;;;;;;4.30;2.15;;;;;;;10.10;40.95;101698.59;5054612;28;20507;-66
2023/04/26 04:55:53;;;;;;;3.95;2.42;;;;;;;10.15;40.56;101704.50;5055893;28;20033;-67
2023/04/26 04:58:21;;;;;;;4.10;2.30;;;;;;;10.23;40.32;101706.66;5037296;28;20029;-66
2023/04/26 05:00:46;;;;;;;6.72;2.70;;;;;;;10.32;40.73;101709.56;5037771;28;20028;-66
2023/04/26 05:03:13;;;;;;;6.80;2.90;;;;;;;10.34;40.91;101698.72;5054473;28;20116;-66
2023/04/26 05:05:38;;;;;;;4.55;2.60;;;;;;;10.51;41.05;101704.63;5037381;28;20048;-66
2023/04/26 05:08:06;;;;;;;7.53;2.90;;;;;;;10.69;41.44;101712.34;5055211;28;20037;-66
2023/04/26 05:10:32;;;;;;;6.18;2.15;;;;;;;10.81;40.82;101712.31;5053778;28;20099;-67
2023/04/26 05:12:57;;;;;;;9.50;2.83;;;;;;;10.91;41.08;101713.41;5037151;28;20033;-67
2023/04/26 05:15:22;;;;;;;8.40;2.08;;;;;;;10.99;40.89;101716.41;5038127;28;20053;-67
2023/04/26 05:17:48;;;;;;;7.78;2.95;;;;;;;11.10;41.41;101719.16;5037486;28;20029;-66
2023/04/26 05:20:14;;;;;;;4.80;2.60;;;;;;;11.25;41.00;101716.34;5054085;28;20040;-67
2023/04/26 05:22:40;;;;;;;8.18;2.85;;;;;;;11.36;40.95;101714.56;5036804;28;20025;-66
2023/04/26 05:25:07;;;;;;;9.35;2.55;;;;;;;11.43;41.02;101713.16;5037479;28;20042;-67
2023/04/26 05:27:32;;;;;;;9.52;2.92;;;;;;;11.61;40.34;101716.31;5037611;28;20515;-66
2023/04/26 05:30:00;;;;;;;7.82;3.08;;;;;;;11.74;41.22;101714.44;5037298;28;20024;-67
2023/04/26 05:32:25;;;;;;;9.07;4.13;;;;;;;11.87;40.67;101717.91;5053744;28;20033;-68
2023/04/26 05:34:51;;;;;;;7.22;2.47;;;;;;;11.99;40.85;101708.94;5055357;28;20044;-67
2023/04/26 05:37:16;;;;;;;7.60;2.65;;;;;;;12.20;41.11;101720.72;5037070;28;20049;-65
2023/04/26 05:39:42;;;;;;;10.68;3.33;;;;;;;12.42;41.26;101728.00;5053705;28;20047;-64
2023/04/26 05:42:08;;;;;;;7.85;3.20;;;;;;;12.59;40.55;101726.69;5054269;28;20024;-64
2023/04/26 05:44:33;;;;;;;6.60;3.33;;;;;;;12.79;40.23;101721.44;5053732;28;20032;-64
2023/04/26 05:46:59;;;;;;;5.47;3.08;;;;;;;13.02;41.03;101716.91;5036462;28;20039;-64
2023/04/26 05:49:25;;;;;;;7.00;2.67;;;;;;;13.25;40.60;101729.41;5036365;28;20029;-64
2023/04/26 05:51:50;;;;;;;14.30;3.22;;;;;;;13.50;39.82;101728.25;5053090;28;20029;-64
2023/04/26 05:54:16;;;;;;;7.13;3.13;;;;;;;13.65;41.14;101726.13;5020327;28;20028;-64
2023/04/26 05:56:41;;;;;;;7.80;3.40;;;;;;;13.71;41.09;101725.59;5052808;28;20041;-64
2023/04/26 05:59:07;;;;;;;9.85;3.35;;;;;;;13.83;40.19;101724.59;5054230;28;20088;-64
2023/04/26 06:01:33;;;;;;;11.40;3.33;;;;;;;13.87;40.98;101736.84;5053100;28;20508;-64
2023/04/26 06:03:58;;;;;;;6.93;2.80;;;;;;;13.87;39.95;101726.88;5052750;28;20049;-63
2023/04/26 06:06:23;;;;;;;7.55;3.15;;;;;;;13.90;40.04;101725.81;5052662;28;20090;-65
2023/04/26 06:08:49;;;;;;;8.38;3.10;;;;;;;13.97;40.04;101727.84;5053420;28;20099;-64
2023/04/26 06:11:14;;;;;;;6.75;3.22;;;;;;;13.97;40.68;101721.59;5019699;28;20037;-64
2023/04/26 06:13:41;;;;;;;7.43;3.20;;;;;;;13.98;40.65;101729.56;5036637;28;20056;-64
2023/04/26 06:16:06;;;;;;;12.25;2.78;;;;;;;14.05;39.81;101718.25;5019903;28;20037;-64
2023/04/26 06:18:31;;;;;;;9.52;2.78;;;;;;;14.13;40.68;101727.41;5053203;28;20082;-64
2023/04/26 06:20:57;;;;;;;9.10;3.75;;;;;;;14.20;40.94;101734.00;5053336;28;20116;-64
2023/04/26 06:23:22;;;;;;;12.68;3.13;;;;;;;14.23;40.62;101733.72;5052959;28;20033;-64
2023/04/26 06:25:48;;;;;;;7.25;3.05;;;;;;;14.26;40.97;101738.88;5052964;28;20124;-64
2023/04/26 06:28:14;;;;;;;10.52;3.58;;;;;;;14.33;39.93;101740.06;5052604;28;20040;-64
2023/04/26 06:30:41;;;;;;;13.02;3.50;;;;;;;14.44;40.40;101733.75;5036145;28;20497;-64
2023/04/26 06:33:07;;;;;;;6.45;3.03;;;;;;;14.57;41.05;101735.25;5036026;28;20017;-64
2023/04/26 06:35:38;;;;;;;7.05;2.75;;;;;;;14.68;40.70;101744.28;5052848;28;20120;-64
2023/04/26 06:38:03;;;;;;;12.02;3.40;;;;;;;14.73;40.69;101742.88;5035576;28;20403;-64
2023/04/26 06:40:30;;;;;;;12.57;3.22;;;;;;;14.80;39.56;101740.50;5036035;28;20033;-64
2023/04/26 06:42:56;;;;;;;9.65;3.63;;;;;;;14.91;39.85;101743.09;5052651;28;20057;-64
2023/04/26 06:45:21;;;;;;;9.18;2.88;;;;;;;14.96;40.17;101732.78;5053024;28;20098;-64
2023/04/26 06:47:47;;;;;;;7.47;2.72;;;;;;;15.07;39.57;101748.88;5035619;28;20044;-64
2023/04/26 06:50:13;;;;;;;16.67;2.97;;;;;;;15.16;41.03;101748.03;5052323;28;20033;-64
2023/04/26 06:52:39;;;;;;;12.07;3.38;;;;;;;15.21;40.66;101748.50;5034246;28;20048;-64
2023/04/26 06:55:04;;;;;;;5.38;2.60;;;;;;;15.28;41.14;101748.78;5016214;28;20124;-64
2023/04/26 06:57:30;;;;;;;7.80;3.90;;;;;;;15.31;39.65;101752.09;5032440;28;20034;-64
2023/04/26 06:59:56;;;;;;;9.63;3.42;;;;;;;15.35;39.63;101760.78;5032737;28;20018;-64
2023/04/26 07:02:23;;;;;;;11.32;3.38;;;;;;;15.37;40.12;101746.16;5000292;28;20033;-64
2023/04/26 07:04:48;;;;;;;8.32;3.20;;;;;;;15.39;40.42;101749.56;5045830;28;20540;-64
2023/04/26 07:07:15;;;;;;;11.18;3.40;;;;;;;15.44;39.91;101747.28;5053718;28;20064;-64
2023/04/26 07:09:40;;;;;;;7.78;3.13;;;;;;;15.52;39.88;101752.06;5035177;28;20036;-64
2023/04/26 07:12:06;;;;;;;16.05;3.63;;;;;;;15.56;40.47;101759.72;5052078;28;20061;-64
2023/04/26 07:14:31;;;;;;;8.68;3.38;;;;;;;15.51;39.98;101767.41;5001240;28;20049;-64
2023/04/26 07:16:57;;;;;;;6.10;3.08;;;;;;;15.54;40.16;101766.25;5044344;28;20025;-65
2023/04/26 07:19:22;;;;;;;7.75;3.13;;;;;;;15.63;40.48;101760.88;5043603;28;20512;-64
2023/04/26 07:21:47;;;;;;;6.97;2.63;;;;;;;15.80;40.67;101755.81;5031669;28;20029;-65
2023/04/26 07:24:13;;;;;;;6.13;2.60;;;;;;;15.99;39.38;101756.66;5033238;28;20075;-64
2023/04/26 07:26:38;;;;;;;5.53;3.25;;;;;;;16.12;40.34;101759.94;5031559;28;20076;-64
2023/04/26 07:29:04;;;;;;;7.03;2.30;;;;;;;16.18;40.09;101750.41;5031575;28;20505;-64
2023/04/26 07:31:32;;;;;;;6.15;2.72;;;;;;;16.23;40.14;101750.81;5015017;28;20037;-64
2023/04/26 07:33:58;;;;;;;11.80;2.55;;;;;;;16.28;39.10;101740.44;5031566;28;20033;-65
2023/04/26 07:36:23;;;;;;;5.07;2.38;;;;;;;16.32;39.10;101741.84;5031652;28;20021;-65
2023/04/26 07:38:49;;;;;;;7.60;2.55;;;;;;;16.39;39.49;101731.34;5031979;28;20029;-65
2023/04/26 07:41:16;;;;;;;14.05;3.10;;;;;;;16.53;39.55;101738.97;5031836;28;20053;-64
2023/04/26 07:43:41;;;;;;;5.85;2.83;;;;;;;16.58;38.11;101732.16;5031752;28;20030;-65
2023/04/26 07:46:07;;;;;;;7.68;2.42;;;;;;;16.67;39.68;101731.28;5036154;28;20056;-64
2023/04/26 07:48:32;;;;;;;4.10;2.50;;;;;;;16.90;37.90;101734.50;5037122;28;20397;-65
2023/04/26 07:51:09;;;;;;;15.18;2.60;;;;;;;17.12;38.84;101733.25;5020200;28;20083;-64
2023/04/26 07:53:35;;;;;;;11.07;3.30;;;;;;;17.35;37.58;101737.28;5021009;28;20034;-65
2023/04/26 07:56:02;;;;;;;5.85;2.42;;;;;;;17.56;37.37;101734.38;5038772;28;20033;-65
2023/04/26 07:58:27;;;;;;;3.92;2.03;;;;;;;17.61;37.59;101732.91;5036819;28;20404;-64
2023/04/26 08:00:54;;;;;;;4.30;2.13;;;;;;;17.64;38.27;101727.19;5019406;28;20108;-65
2023/04/26 08:03:19;;;;;;;4.80;2.42;;;;;;;17.63;37.89;101730.88;5003391;28;20030;-65
2023/04/26 08:05:45;;;;;;;5.03;1.92;;;;;;;17.58;38.18;101735.91;5035640;28;20044;-65
2023/04/26 08:08:11;;;;;;;5.65;2.00;;;;;;;17.54;37.88;101723.66;5018995;28;20045;-65
2023/04/26 08:10:40;;;;;;;5.07;1.80;;;;;;;17.53;37.92;101724.66;5019257;28;20099;-64
2023/04/26 08:13:05;;;;;;;7.80;1.60;;;;;;;17.59;37.73;101750.31;5036610;28;20033;-64
2023/04/26 08:15:31;;;;;;;3.70;1.67;;;;;;;17.77;37.40;101743.06;5035168;28;20045;-65
2023/04/26 08:17:56;;;;;;;8.98;2.55;;;;;;;17.95;36.98;101742.03;5019624;28;20029;-65
2023/04/26 08:20:22;;;;;;;9.13;2.60;;;;;;;18.09;37.19;101750.66;5018531;28;20026;-65
2023/04/26 08:22:47;;;;;;;6.30;2.00;;;;;;;18.18;36.62;101747.00;5035333;28;20037;-66
2023/04/26 08:25:14;;;;;;;9.75;2.20;;;;;;;18.25;36.22;101745.38;5035063;28;20116;-65
2023/04/26 08:27:40;;;;;;;4.35;2.50;;;;;;;18.21;36.30;101739.41;5002206;28;20041;-65
2023/04/26 08:30:06;;;;;;;5.85;2.35;;;;;;;18.15;36.70;101741.88;5035413;28;20030;-64
2023/04/26 08:32:32;;;;;;;5.97;2.35;;;;;;;18.13;36.23;101749.34;5036249;28;20037;-65
2023/04/26 08:34:59;;;;;;;5.88;2.17;;;;;;;18.10;36.35;101739.66;5018848;28;20033;-65
2023/04/26 08:37:24;;;;;;;6.63;2.65;;;;;;;18.13;36.70;101744.75;5034929;28;20116;-64
2023/04/26 08:39:49;;;;;;;4.72;2.40;;;;;;;18.16;36.19;101749.03;5034381;28;20560;-65
2023/04/26 08:42:16;;;;;;;5.13;2.28;;;;;;;18.26;36.97;101744.34;5036636;28;20163;-64
2023/04/26 08:44:42;;;;;;;9.10;3.45;;;;;;;18.29;35.79;101738.63;5001866;28;20060;-65
2023/04/26 08:47:17;;;;;;;7.95;2.30;;;;;;;18.40;36.32;101730.22;5029154;28;20112;-65
2023/04/26 08:49:51;;;;;;;9.23;2.70;;;;;;;18.84;35.93;101734.69;5034420;28;20041;-65
2023/04/26 08:52:21;;;;;;;3.35;2.25;;;;;;;19.26;35.67;101729.28;5018494;28;20509;-65
2023/04/26 08:54:48;;;;;;;8.18;2.38;;;;;;;19.72;35.49;101731.50;5018305;28;20036;-64
2023/04/26 08:57:14;;;;;;;9.15;2.47;;;;;;;20.23;34.89;101729.53;5016885;28;20481;-65
2023/04/26 08:59:41;;;;;;;12.95;2.88;;;;;;;20.71;33.88;101721.34;5034000;28;20042;-65
2023/04/26 09:02:07;;;;;;;6.60;1.92;;;;;;;21.21;33.66;101718.34;5017612;28;20144;-65
2023/04/26 09:04:32;;;;;;;8.10;1.83;;;;;;;21.73;32.98;101710.38;5043424;28;20035;-66
2023/04/26 09:07:03;;;;;;;7.65;1.98;;;;;;;22.18;33.47;101715.03;5055307;28;20402;-66
2023/04/26 09:09:41;;;;;;;4.50;1.38;;;;;;;22.61;33.14;101711.56;5053904;28;20032;-65
2023/04/26 09:12:07;;;;;;;6.80;1.35;;;;;;;22.98;32.60;101712.56;5054293;28;20028;-65
2023/04/26 09:14:32;;;;;;;5.43;1.08;;;;;;;23.05;31.95;101708.06;5037089;28;20037;-66
2023/04/26 09:16:58;;;;;;;6.22;1.40;;;;;;;23.16;32.04;101716.63;5053882;28;20124;-65
2023/04/26 09:19:38;;;;;;;3.85;1.52;;;;;;;23.63;31.32;101709.88;5053551;28;20033;-66
2023/04/26 09:22:05;;;;;;;2.85;1.02;;;;;;;23.78;31.67;101700.56;5031657;28;20033;-66
2023/04/26 09:24:51;;;;;;;1.92;1.10;;;;;;;24.11;30.73;101700.97;5034104;28;20507;-65
2023/04/26 09:27:17;;;;;;;6.22;1.70;;;;;;;24.11;31.22;101703.69;5017921;28;20017;-66
2023/04/26 09:29:58;;;;;;;5.35;1.80;;;;;;;23.79;30.81;101698.69;5033426;28;20032;-65
2023/04/26 09:32:25;;;;;;;3.58;1.73;;;;;;;23.57;31.23;101702.44;5050012;28;20072;-66
2023/04/26 09:34:50;;;;;;;9.63;1.55;;;;;;;23.33;30.59;101702.75;5053363;28;20035;-66
2023/04/26 09:37:16;;;;;;;2.05;0.90;;;;;;;23.15;30.85;101704.00;5053398;28;20025;-65
2023/04/26 09:39:41;;;;;;;6.25;1.35;;;;;;;22.90;30.64;101710.78;5054453;28;20036;-65
2023/04/26 09:42:08;;;;;;;1.95;1.27;;;;;;;22.64;31.39;101707.63;5037233;28;20170;-65
2023/04/26 09:44:34;;;;;;;3.22;1.08;;;;;;;22.46;31.46;101701.66;5053257;28;20033;-66
2023/04/26 09:47:02;;;;;;;2.78;1.00;;;;;;;22.46;29.93;101702.50;5053190;28;20033;-66
2023/04/26 09:49:30;;;;;;;2.72;1.13;;;;;;;22.30;31.24;101702.66;5052981;28;20389;-66
2023/04/26 09:52:03;;;;;;;3.03;1.45;;;;;;;22.18;31.11;101698.66;5036618;28;20112;-65
2023/04/26 09:54:49;;;;;;;2.03;1.17;;;;;;;21.97;30.67;101701.22;5053151;28;20082;-66
2023/04/26 09:57:16;;;;;;;5.15;1.30;;;;;;;21.74;31.22;101701.19;5053537;28;20025;-65
2023/04/26 09:59:50;;;;;;;3.40;0.90;;;;;;;21.69;30.44;101694.56;5053035;28;20037;-65
2023/04/26 10:02:21;;;;;;;2.97;1.00;;;;;;;21.55;30.63;101695.34;5053203;28;20032;-65
2023/04/26 10:04:49;;;;;;;4.72;1.25;;;;;;;21.49;30.25;101691.47;5054467;28;20037;-65
2023/04/26 10:07:16;;;;;;;4.10;0.75;;;;;;;21.36;30.71;101692.03;5036186;28;20033;-65
2023/04/26 10:09:42;;;;;;;6.80;1.02;;;;;;;21.21;29.97;101688.38;5053925;28;20039;-65
2023/04/26 10:12:10;;;;;;;3.42;1.13;;;;;;;21.11;30.49;101692.31;5037383;28;20126;-65
2023/04/26 10:14:36;;;;;;;4.05;1.77;;;;;;;20.96;30.67;101685.88;5052755;28;20053;-65
2023/04/26 10:17:05;;;;;;;2.78;1.27;;;;;;;20.79;30.99;101694.09;5052978;28;20037;-65
2023/04/26 10:19:34;;;;;;;2.42;0.98;;;;;;;20.67;30.96;101694.63;5053277;28;20079;-67
2023/04/26 10:22:06;;;;;;;2.13;1.13;;;;;;;20.58;30.96;101690.22;5052807;28;20511;-64
2023/04/26 10:24:33;;;;;;;3.88;0.93;;;;;;;20.54;30.60;101692.47;5054088;28;20025;-65
2023/04/26 10:27:00;;;;;;;5.22;1.55;;;;;;;20.54;30.97;101684.28;5036607;28;20017;-65
2023/04/26 10:30:08;;;;;;;3.97;1.88;;;;;;;20.62;30.89;101691.59;5053086;28;20037;-65
2023/04/26 10:32:53;;;;;;;5.30;1.08;;;;;;;20.77;30.13;101689.84;5047050;28;20107;-64
2023/04/26 10:35:20;;;;;;;5.10;1.10;;;;;;;20.90;30.38;101681.97;5053954;28;20052;-65
2023/04/26 10:38:01;;;;;;;4.72;1.48;;;;;;;21.10;29.61;101685.16;5036092;28;20062;-66
2023/04/26 10:40:28;;;;;;;3.05;1.15;;;;;;;21.37;29.63;101674.66;5052452;28;20033;-66
2023/04/26 10:43:26;;;;;;;5.97;1.33;;;;;;;22.22;29.72;101672.69;5035985;28;20029;-65
2023/04/26 10:45:53;;;;;;;4.68;1.30;;;;;;;22.81;29.67;101678.28;5051352;28;20037;-66
2023/04/26 10:48:22;;;;;;;2.42;1.42;;;;;;;23.58;28.89;101677.63;5052666;28;20100;-65
2023/04/26 10:51:00;;;;;;;3.80;1.42;;;;;;;24.59;27.24;101666.38;5051852;28;20028;-66
2023/04/26 10:53:28;;;;;;;4.15;1.50;;;;;;;24.65;27.32;101659.25;5053115;28;20036;-66
2023/04/26 10:55:53;;;;;;;8.55;1.60;;;;;;;24.51;28.50;101665.69;5053091;28;20033;-67
2023/04/26 10:58:30;;;;;;;4.85;1.60;;;;;;;24.23;28.55;101654.72;5035826;28;20115;-65
2023/04/26 11:01:16;;;;;;;7.00;1.40;;;;;;;24.01;27.87;101659.31;5051830;28;20507;-66
2023/04/26 11:04:02;;;;;;;5.20;2.17;;;;;;;23.85;28.44;101658.75;5051689;28;20511;-65
2023/04/26 11:06:46;;;;;;;6.03;1.50;;;;;;;23.67;27.79;101654.56;5038687;28;20045;-66
2023/04/26 11:09:38;;;;;;;6.30;1.65;;;;;;;23.57;28.86;101659.50;5052057;28;20035;-66
2023/04/26 11:12:06;;;;;;;5.03;1.25;;;;;;;23.52;28.41;101642.84;5035680;28;20056;-65
2023/04/26 11:14:35;;;;;;;4.60;1.40;;;;;;;23.56;28.18;101652.34;5051439;28;20110;-65
2023/04/26 11:17:05;;;;;;;5.72;1.42;;;;;;;23.70;27.50;101650.63;5051679;28;20075;-66
2023/04/26 11:19:34;;;;;;;5.20;1.95;;;;;;;23.84;27.80;101646.97;5051150;28;20033;-65
2023/04/26 11:22:00;;;;;;;5.68;1.38;;;;;;;24.02;28.05;101647.34;5052161;28;20029;-66
2023/04/26 11:24:26;;;;;;;4.53;1.92;;;;;;;24.21;27.71;101635.75;5035190;28;20115;-66
2023/04/26 11:26:52;;;;;;;6.32;1.85;;;;;;;24.38;27.92;101638.19;5052994;28;20052;-66